createdAt,value
2022-08-26T00:02:21.615Z,18.07
2022-08-26T00:05:05.076Z,18.02
2022-08-26T00:07:48.435Z,18.04
2022-08-26T00:10:32.270Z,18.06
2022-08-26T00:13:15.860Z,18.02
2022-08-26T00:16:05.456Z,17.96
2022-08-26T00:18:48.614Z,17.95
2022-08-26T00:21:32.455Z,18.02
2022-08-26T00:24:15.532Z,18.05
2022-08-26T00:26:58.635Z,18.10
2022-08-26T00:29:41.754Z,18.01
2022-08-26T00:32:26.238Z,18.06
2022-08-26T00:35:10.534Z,18.06
2022-08-26T00:37:54.165Z,18.11
2022-08-26T00:40:40.794Z,18.18
2022-08-26T00:43:25.197Z,18.17
2022-08-26T00:46:13.544Z,18.23
2022-08-26T00:49:04.333Z,18.21
2022-08-26T00:51:58.436Z,18.23
2022-08-26T00:54:47.025Z,18.20
2022-08-26T00:57:30.334Z,18.18
2022-08-26T01:00:18.052Z,18.14
2022-08-26T01:03:03.175Z,18.12
2022-08-26T01:05:51.173Z,18.17
2022-08-26T01:08:35.395Z,18.18
2022-08-26T01:11:18.540Z,18.22
2022-08-26T01:14:03.965Z,18.21
2022-08-26T01:16:47.244Z,18.21
2022-08-26T01:19:37.619Z,18.18
2022-08-26T01:22:28.784Z,18.08
2022-08-26T01:25:14.576Z,18.06
2022-08-26T01:28:00.098Z,18.13
2022-08-26T01:30:44.645Z,18.03
2022-08-26T01:33:39.956Z,18.09
2022-08-26T01:36:25.593Z,18.10
2022-08-26T01:39:09.576Z,18.05
2022-08-26T01:41:58.027Z,17.91
2022-08-26T01:44:50.298Z,17.99
2022-08-26T01:47:41.497Z,17.95
2022-08-26T01:50:30.184Z,18.04
2022-08-26T01:53:17.950Z,18.05
2022-08-26T01:56:03.830Z,18.04
2022-08-26T01:58:52.713Z,17.89
2022-08-26T02:01:36.409Z,17.80
2022-08-26T02:04:25.499Z,17.95
2022-08-26T02:07:10.833Z,17.94
2022-08-26T02:09:56.930Z,17.98
2022-08-26T02:12:40.864Z,18.02
2022-08-26T02:15:25.606Z,18.06
2022-08-26T02:18:14.108Z,18.11
2022-08-26T02:20:58.222Z,18.17
2022-08-26T02:23:41.753Z,18.10
2022-08-26T02:26:27.188Z,18.07
2022-08-26T02:29:17.686Z,18.11
2022-08-26T02:32:02.383Z,18.14
2022-08-26T02:34:47.101Z,18.17
2022-08-26T02:37:32.082Z,18.16
2022-08-26T02:40:19.402Z,18.16
2022-08-26T02:43:08.563Z,18.13
2022-08-26T02:45:52.313Z,18.16
2022-08-26T02:48:36.936Z,18.23
2022-08-26T02:51:20.042Z,18.20
2022-08-26T02:54:03.262Z,18.18
2022-08-26T02:56:47.496Z,18.26
2022-08-26T02:59:31.440Z,18.15
2022-08-26T03:02:14.595Z,18.19
2022-08-26T03:05:02.305Z,18.20
2022-08-26T03:07:45.572Z,18.25
2022-08-26T03:10:29.874Z,18.28
2022-08-26T03:13:13.076Z,18.27
2022-08-26T03:15:56.611Z,18.23
2022-08-26T03:18:39.773Z,18.22
2022-08-26T03:21:24.266Z,18.16
2022-08-26T03:24:07.749Z,18.20
2022-08-26T03:26:52.928Z,18.16
2022-08-26T03:29:53.734Z,18.17
2022-08-26T03:32:36.946Z,18.10
2022-08-26T03:35:21.854Z,17.98
2022-08-26T03:38:08.330Z,18.01
2022-08-26T03:40:52.462Z,17.96
2022-08-26T03:43:35.743Z,18.00
2022-08-26T03:46:21.682Z,17.98
2022-08-26T03:49:06.380Z,17.90
2022-08-26T03:51:49.543Z,17.95
2022-08-26T03:54:34.841Z,17.99
2022-08-26T03:57:18.454Z,18.08
2022-08-26T04:00:02.684Z,18.18
2022-08-26T04:02:46.958Z,18.13
2022-08-26T04:05:30.097Z,18.18
2022-08-26T04:08:13.164Z,18.20
2022-08-26T04:10:57.984Z,18.19
2022-08-26T04:13:41.754Z,18.18
2022-08-26T04:16:25.185Z,18.21
2022-08-26T04:19:12.153Z,18.15
2022-08-26T04:21:56.076Z,18.16
2022-08-26T04:24:40.346Z,18.25
2022-08-26T04:27:24.834Z,18.29
2022-08-26T04:30:10.256Z,18.23
2022-08-26T04:32:53.322Z,18.40
2022-08-26T04:35:37.175Z,18.46
2022-08-26T04:38:20.990Z,18.56
2022-08-26T04:41:05.656Z,18.77
2022-08-26T04:44:01.926Z,19.02
2022-08-26T04:46:45.344Z,19.22
2022-08-26T04:49:28.804Z,19.39
2022-08-26T04:52:18.877Z,19.56
2022-08-26T04:55:02.018Z,19.67
2022-08-26T04:57:45.972Z,19.83
2022-08-26T05:00:30.411Z,19.92
2022-08-26T05:03:14.114Z,19.96
2022-08-26T05:05:57.278Z,19.94
2022-08-26T05:08:41.121Z,19.88
2022-08-26T05:11:24.575Z,19.89
2022-08-26T05:14:08.041Z,19.91
2022-08-26T05:16:54.073Z,19.90
2022-08-26T05:19:37.484Z,20.05
2022-08-26T05:22:26.427Z,20.14
2022-08-26T05:25:09.728Z,20.43
2022-08-26T05:27:52.795Z,20.59
2022-08-26T05:30:36.039Z,20.82
2022-08-26T05:33:21.453Z,21.00
2022-08-26T05:36:09.358Z,21.10
2022-08-26T05:38:52.789Z,21.22
2022-08-26T05:41:38.421Z,21.20
2022-08-26T05:44:22.384Z,21.23
2022-08-26T05:47:05.631Z,21.24
2022-08-26T05:49:51.622Z,21.23
2022-08-26T05:52:35.233Z,21.20
2022-08-26T05:55:18.528Z,21.01
2022-08-26T05:58:02.802Z,20.97
2022-08-26T06:00:46.345Z,21.11
2022-08-26T06:03:29.900Z,21.12
2022-08-26T06:06:20.100Z,21.36
2022-08-26T06:09:09.468Z,21.50
2022-08-26T06:11:58.938Z,21.69
2022-08-26T06:14:42.009Z,21.84
2022-08-26T06:17:26.105Z,21.89
2022-08-26T06:20:10.332Z,21.97
2022-08-26T06:23:12.386Z,21.90
2022-08-26T06:25:55.536Z,21.69
2022-08-26T06:28:40.363Z,21.67
2022-08-26T06:31:27.806Z,21.57
2022-08-26T06:34:12.687Z,21.55
2022-08-26T06:36:57.181Z,21.59
2022-08-26T06:39:41.696Z,21.65
2022-08-26T06:42:24.813Z,21.75
2022-08-26T06:45:08.868Z,21.83
2022-08-26T06:47:52.502Z,21.92
2022-08-26T06:50:36.319Z,21.98
2022-08-26T06:53:19.399Z,22.06
2022-08-26T06:56:05.845Z,22.05
2022-08-26T06:58:49.355Z,22.09
2022-08-26T07:01:35.985Z,22.31
2022-08-26T07:04:21.996Z,22.63
2022-08-26T07:07:05.607Z,22.94
2022-08-26T07:09:52.869Z,23.18
2022-08-26T07:12:38.990Z,23.30
2022-08-26T07:15:23.909Z,23.47
2022-08-26T07:18:14.409Z,23.69
2022-08-26T07:20:57.519Z,24.04
2022-08-26T07:23:41.273Z,25.24
2022-08-26T07:26:29.140Z,26.43
2022-08-26T07:29:15.040Z,28.21
2022-08-26T07:31:58.263Z,29.08
2022-08-26T07:34:43.608Z,29.79
2022-08-26T07:37:26.743Z,32.86
2022-08-26T07:40:23.295Z,33.17
2022-08-26T07:43:06.627Z,33.14
2022-08-26T07:45:51.536Z,31.64
2022-08-26T07:48:35.559Z,30.74
2022-08-26T07:51:21.234Z,32.94
2022-08-26T07:54:05.609Z,34.73
2022-08-26T07:56:49.917Z,39.89
2022-08-26T07:59:35.051Z,44.38
2022-08-26T08:02:19.541Z,44.54
2022-08-26T08:05:02.652Z,45.65
2022-08-26T08:07:45.915Z,43.96
2022-08-26T08:10:36.529Z,37.33
2022-08-26T08:13:19.851Z,36.75
2022-08-26T08:16:03.741Z,37.93
2022-08-26T08:18:48.605Z,37.85
2022-08-26T08:21:33.508Z,38.22
2022-08-26T08:24:16.769Z,38.24
2022-08-26T08:26:59.913Z,37.60
2022-08-26T08:29:42.981Z,39.14
2022-08-26T08:32:26.123Z,38.15
2022-08-26T08:35:12.643Z,42.08
2022-08-26T08:37:58.192Z,42.64
2022-08-26T08:40:46.972Z,44.31
2022-08-26T08:43:41.018Z,46.27
2022-08-26T08:46:24.583Z,46.42
2022-08-26T08:49:11.042Z,47.36
2022-08-26T08:52:01.687Z,46.47
2022-08-26T08:54:44.862Z,45.27
2022-08-26T08:57:39.213Z,44.78
2022-08-26T09:00:30.417Z,43.80
2022-08-26T09:03:33.745Z,42.84
2022-08-26T09:06:20.575Z,43.99
2022-08-26T09:09:08.140Z,43.60
2022-08-26T09:11:51.717Z,44.65
2022-08-26T09:14:34.927Z,47.00
2022-08-26T09:17:31.417Z,48.53
2022-08-26T09:20:22.117Z,49.03
2022-08-26T09:23:05.427Z,49.34
2022-08-26T09:25:55.615Z,50.38
2022-08-26T09:28:43.656Z,48.06
2022-08-26T09:31:29.068Z,52.74
2022-08-26T09:34:17.801Z,49.97
2022-08-26T09:37:04.670Z,49.54
2022-08-26T09:39:48.046Z,49.98
2022-08-26T09:42:32.847Z,52.21
2022-08-26T09:45:17.119Z,48.48
2022-08-26T09:48:01.351Z,52.22
2022-08-26T09:50:55.255Z,48.73
2022-08-26T09:53:53.519Z,49.03
2022-08-26T09:56:38.687Z,49.56
2022-08-26T09:59:32.022Z,48.92
2022-08-26T10:02:33.829Z,49.58
2022-08-26T10:05:20.128Z,47.81
2022-08-26T10:08:18.703Z,49.86
2022-08-26T10:11:05.261Z,52.43
2022-08-26T10:13:56.419Z,51.12
2022-08-26T10:16:48.520Z,51.59
2022-08-26T10:19:41.654Z,47.63
2022-08-26T10:22:46.481Z,45.89
2022-08-26T10:25:36.046Z,47.60
2022-08-26T10:28:28.262Z,51.83
2022-08-26T10:31:27.530Z,52.47
2022-08-26T10:34:14.221Z,52.41
2022-08-26T10:37:14.383Z,50.67
2022-08-26T10:40:03.831Z,46.95
2022-08-26T10:42:54.449Z,45.30
2022-08-26T10:45:43.906Z,42.28
2022-08-26T10:48:35.384Z,46.88
2022-08-26T10:51:26.691Z,48.60
2022-08-26T10:54:14.609Z,50.99
2022-08-26T10:57:03.584Z,50.44
2022-08-26T11:00:00.176Z,49.69
2022-08-26T11:02:48.341Z,50.06
2022-08-26T11:05:31.611Z,50.84
2022-08-26T11:08:31.742Z,50.43
2022-08-26T11:11:47.387Z,49.59
2022-08-26T11:14:58.492Z,49.21
2022-08-26T11:17:58.491Z,44.27
2022-08-26T11:20:45.981Z,42.60
2022-08-26T11:23:50.465Z,40.28
2022-08-26T11:26:56.072Z,38.73
2022-08-26T11:30:02.251Z,36.81
2022-08-26T11:32:53.637Z,35.43
2022-08-26T11:35:51.131Z,34.65
2022-08-26T11:38:35.723Z,34.03
2022-08-26T11:41:29.158Z,34.14
2022-08-26T11:44:13.391Z,33.76
2022-08-26T11:46:59.811Z,33.48
2022-08-26T11:49:43.076Z,33.34
2022-08-26T11:52:26.547Z,32.90
2022-08-26T11:55:11.617Z,32.60
2022-08-26T11:58:00.897Z,32.61
2022-08-26T12:00:53.108Z,32.21
2022-08-26T12:03:43.252Z,32.00
2022-08-26T12:06:29.431Z,31.62
2022-08-26T12:09:16.009Z,31.18
2022-08-26T12:12:14.465Z,31.12
2022-08-26T12:15:16.221Z,30.93
2022-08-26T12:18:20.539Z,31.07
2022-08-26T12:21:16.149Z,30.95
2022-08-26T12:24:01.605Z,30.65
2022-08-26T12:26:44.872Z,30.33
2022-08-26T12:29:29.404Z,29.93
2022-08-26T12:32:17.637Z,29.80
2022-08-26T12:35:09.679Z,29.88
2022-08-26T12:37:55.893Z,29.94
2022-08-26T12:40:43.905Z,30.10
2022-08-26T12:43:42.401Z,30.06
2022-08-26T12:46:28.602Z,30.29
2022-08-26T12:49:13.350Z,30.20
2022-08-26T12:51:56.714Z,30.08
2022-08-26T12:54:57.584Z,30.13
2022-08-26T12:57:40.722Z,30.32
2022-08-26T13:00:28.292Z,30.60
2022-08-26T13:03:38.506Z,30.75
2022-08-26T13:06:30.079Z,30.75
2022-08-26T13:09:33.681Z,29.89
2022-08-26T13:12:29.141Z,30.36
2022-08-26T13:15:12.340Z,30.78
2022-08-26T13:17:55.478Z,30.86
2022-08-26T13:20:44.927Z,30.84
2022-08-26T13:23:30.236Z,30.33
2022-08-26T13:26:13.390Z,29.96
2022-08-26T13:29:01.618Z,29.73
2022-08-26T13:31:46.918Z,29.38
2022-08-26T13:34:32.472Z,29.05
2022-08-26T13:37:15.798Z,28.97
2022-08-26T13:40:00.449Z,28.72
2022-08-26T13:42:49.776Z,28.64
2022-08-26T13:45:33.284Z,28.39
2022-08-26T13:48:21.569Z,28.33
2022-08-26T13:51:08.990Z,28.18
2022-08-26T13:53:52.782Z,28.10
2022-08-26T13:56:41.546Z,27.92
2022-08-26T13:59:24.659Z,27.99
2022-08-26T14:02:08.601Z,27.96
2022-08-26T14:04:53.974Z,27.73
2022-08-26T14:07:37.352Z,27.82
2022-08-26T14:10:23.518Z,27.89
2022-08-26T14:13:08.213Z,27.91
2022-08-26T14:15:51.870Z,27.76
2022-08-26T14:18:41.640Z,27.80
2022-08-26T14:21:26.753Z,27.61
2022-08-26T14:24:09.943Z,27.62
2022-08-26T14:26:53.786Z,27.66
2022-08-26T14:29:38.410Z,27.47
2022-08-26T14:32:25.716Z,27.42
2022-08-26T14:35:11.035Z,27.56
2022-08-26T14:37:54.456Z,27.52
2022-08-26T14:40:40.274Z,27.39
2022-08-26T14:43:23.445Z,27.42
2022-08-26T14:46:08.220Z,27.30
2022-08-26T14:48:51.454Z,27.31
2022-08-26T14:51:37.130Z,27.30
2022-08-26T14:54:21.431Z,27.22
2022-08-26T14:57:08.016Z,27.10
2022-08-26T14:59:51.481Z,27.00
2022-08-26T15:02:37.771Z,26.95
2022-08-26T15:05:21.368Z,26.95
2022-08-26T15:08:10.675Z,26.99
2022-08-26T15:10:54.406Z,26.95
2022-08-26T15:13:38.042Z,26.93
2022-08-26T15:16:21.949Z,26.88
2022-08-26T15:19:07.100Z,26.91
2022-08-26T15:21:51.035Z,26.85
2022-08-26T15:24:37.101Z,26.78
2022-08-26T15:27:20.378Z,26.88
2022-08-26T15:30:04.025Z,26.71
2022-08-26T15:32:47.272Z,26.64
2022-08-26T15:35:32.994Z,26.48
2022-08-26T15:38:21.608Z,26.50
2022-08-26T15:41:06.522Z,26.39
2022-08-26T15:43:49.846Z,26.28
2022-08-26T15:46:33.657Z,26.29
2022-08-26T15:49:19.503Z,26.19
2022-08-26T15:52:05.495Z,26.24
2022-08-26T15:54:48.774Z,25.99
2022-08-26T15:57:33.747Z,25.93
2022-08-26T16:00:18.296Z,25.80
2022-08-26T16:03:01.519Z,25.65
2022-08-26T16:05:45.284Z,25.51
2022-08-26T16:08:30.146Z,25.46
2022-08-26T16:11:20.086Z,25.50
2022-08-26T16:14:04.632Z,25.28
2022-08-26T16:16:48.250Z,25.36
2022-08-26T16:19:31.487Z,25.11
2022-08-26T16:22:14.628Z,25.12
2022-08-26T16:25:00.073Z,24.97
2022-08-26T16:27:43.200Z,24.87
2022-08-26T16:30:28.286Z,24.77
2022-08-26T16:33:11.729Z,24.70
2022-08-26T16:35:57.551Z,24.69
2022-08-26T16:38:53.463Z,24.65
2022-08-26T16:41:38.177Z,24.54
2022-08-26T16:44:22.280Z,24.50
2022-08-26T16:47:05.651Z,24.48
2022-08-26T16:49:48.824Z,24.33
2022-08-26T16:52:32.004Z,24.26
2022-08-26T16:55:17.812Z,24.15
2022-08-26T16:58:02.940Z,24.02
2022-08-26T17:00:46.422Z,23.96
2022-08-26T17:03:29.588Z,23.90
2022-08-26T17:06:13.270Z,23.78
2022-08-26T17:08:56.610Z,23.68
2022-08-26T17:11:40.189Z,23.57
2022-08-26T17:14:25.054Z,23.46
2022-08-26T17:17:09.018Z,23.37
2022-08-26T17:19:52.447Z,23.23
2022-08-26T17:22:35.774Z,23.11
2022-08-26T17:25:21.364Z,23.09
2022-08-26T17:28:05.542Z,23.02
2022-08-26T17:30:58.645Z,22.93
2022-08-26T17:33:42.162Z,22.88
2022-08-26T17:36:27.813Z,22.80
2022-08-26T17:39:11.945Z,22.73
2022-08-26T17:41:55.105Z,22.63
2022-08-26T17:44:38.398Z,22.58
2022-08-26T17:47:23.013Z,22.51
2022-08-26T17:50:09.254Z,22.45
2022-08-26T17:52:52.804Z,22.30
2022-08-26T17:55:36.026Z,22.15
2022-08-26T17:58:23.254Z,22.02
2022-08-26T18:01:07.880Z,22.03
2022-08-26T18:03:54.699Z,21.85
2022-08-26T18:06:41.026Z,21.87
2022-08-26T18:09:24.143Z,21.69
2022-08-26T18:12:07.948Z,21.58
2022-08-26T18:14:51.061Z,21.50
2022-08-26T18:17:34.607Z,21.38
2022-08-26T18:20:20.432Z,21.35
2022-08-26T18:23:03.609Z,21.29
2022-08-26T18:25:46.825Z,21.20
2022-08-26T18:28:29.993Z,21.11
2022-08-26T18:31:16.108Z,21.06
2022-08-26T18:34:00.922Z,20.98
2022-08-26T18:36:45.593Z,20.88
2022-08-26T18:39:28.880Z,20.77
2022-08-26T18:42:12.457Z,20.84
2022-08-26T18:44:55.659Z,20.72
2022-08-26T18:47:39.320Z,20.71
2022-08-26T18:50:22.684Z,20.57
2022-08-26T18:53:07.395Z,20.56
2022-08-26T18:55:50.565Z,20.51
2022-08-26T18:58:33.808Z,20.45
2022-08-26T19:01:18.311Z,20.39
2022-08-26T19:04:03.635Z,20.39
2022-08-26T19:06:48.443Z,20.35
2022-08-26T19:09:33.377Z,20.34
2022-08-26T19:12:16.902Z,20.33
2022-08-26T19:15:01.664Z,20.25
2022-08-26T19:17:44.767Z,20.23
2022-08-26T19:20:28.037Z,20.17
2022-08-26T19:23:30.492Z,20.18
2022-08-26T19:26:16.361Z,20.08
2022-08-26T19:29:00.384Z,20.10
2022-08-26T19:31:43.928Z,20.15
2022-08-26T19:34:28.008Z,20.14
2022-08-26T19:37:11.427Z,20.12
2022-08-26T19:39:54.816Z,20.11
2022-08-26T19:42:39.431Z,20.04
2022-08-26T19:45:25.221Z,19.96
2022-08-26T19:48:08.772Z,19.95
2022-08-26T19:50:52.201Z,19.88
2022-08-26T19:53:35.292Z,19.84
2022-08-26T19:56:18.679Z,19.76
2022-08-26T19:59:04.025Z,19.75
2022-08-26T20:01:47.279Z,19.73
2022-08-26T20:04:45.507Z,19.70
2022-08-26T20:07:28.791Z,19.70
2022-08-26T20:10:18.568Z,19.65
2022-08-26T20:13:01.694Z,19.60
2022-08-26T20:15:46.292Z,19.51
2022-08-26T20:18:46.852Z,19.52
2022-08-26T20:21:34.303Z,19.43
2022-08-26T20:24:19.655Z,19.42
2022-08-26T20:27:07.501Z,19.36
2022-08-26T20:29:51.184Z,19.40
2022-08-26T20:32:36.470Z,19.35
2022-08-26T20:35:20.336Z,19.34
2022-08-26T20:38:03.598Z,19.31
2022-08-26T20:40:46.904Z,19.30
2022-08-26T20:43:30.877Z,19.22
2022-08-26T20:46:18.035Z,19.20
2022-08-26T20:49:05.936Z,19.15
2022-08-26T20:51:52.060Z,19.22
2022-08-26T20:54:35.205Z,19.16
2022-08-26T20:57:19.139Z,19.18
2022-08-26T21:00:02.324Z,19.18
2022-08-26T21:02:46.362Z,19.09
2022-08-26T21:05:31.322Z,19.08
2022-08-26T21:08:16.906Z,18.96
2022-08-26T21:11:00.177Z,18.88
2022-08-26T21:14:03.938Z,18.81
2022-08-26T21:16:48.091Z,18.75
2022-08-26T21:19:31.428Z,18.74
2022-08-26T21:22:16.037Z,18.77
2022-08-26T21:24:59.235Z,18.72
2022-08-26T21:27:42.363Z,18.70
2022-08-26T21:30:25.457Z,18.79
2022-08-26T21:33:08.619Z,18.66
2022-08-26T21:35:55.462Z,18.59
2022-08-26T21:38:41.114Z,18.57
2022-08-26T21:41:24.315Z,18.57
2022-08-26T21:44:07.675Z,18.55
2022-08-26T21:46:50.831Z,18.54
2022-08-26T21:49:33.988Z,18.43
2022-08-26T21:52:17.394Z,18.42
2022-08-26T21:55:03.371Z,18.48
2022-08-26T21:57:51.953Z,18.41
2022-08-26T22:00:35.148Z,18.25
2022-08-26T22:03:18.946Z,18.28
2022-08-26T22:06:02.306Z,18.22
2022-08-26T22:08:49.192Z,18.27
2022-08-26T22:11:33.807Z,18.08
2022-08-26T22:14:18.141Z,18.10
2022-08-26T22:17:02.638Z,18.02
2022-08-26T22:19:46.721Z,17.99
2022-08-26T22:22:29.963Z,17.97
2022-08-26T22:25:13.572Z,17.94
2022-08-26T22:27:58.161Z,17.88
2022-08-26T22:30:43.027Z,17.87
2022-08-26T22:33:26.848Z,17.88
2022-08-26T22:36:16.975Z,17.99
2022-08-26T22:39:00.741Z,17.90
2022-08-26T22:41:45.090Z,17.93
2022-08-26T22:44:29.631Z,17.81
2022-08-26T22:47:12.811Z,17.81
2022-08-26T22:49:56.003Z,17.76
2022-08-26T22:52:39.247Z,17.73
2022-08-26T22:55:22.446Z,17.69
2022-08-26T22:58:06.387Z,17.70
2022-08-26T23:00:51.154Z,17.72
2022-08-26T23:03:37.550Z,17.62
2022-08-26T23:06:20.685Z,17.59
2022-08-26T23:09:03.851Z,17.53
2022-08-26T23:11:48.538Z,17.50
2022-08-26T23:14:33.374Z,17.48
2022-08-26T23:17:18.209Z,17.47
2022-08-26T23:20:01.676Z,17.40
2022-08-26T23:22:46.199Z,17.50
2022-08-26T23:25:32.431Z,17.41
2022-08-26T23:28:15.592Z,17.39
2022-08-26T23:30:59.309Z,17.27
2022-08-26T23:34:01.524Z,17.36
2022-08-26T23:36:46.277Z,17.28
2022-08-26T23:39:30.306Z,17.30
2022-08-26T23:42:13.817Z,17.20
2022-08-26T23:44:57.008Z,17.18
2022-08-26T23:47:41.239Z,17.08
2022-08-26T23:50:50.162Z,17.14
2022-08-26T23:53:32.249Z,17.13
2022-08-26T23:56:16.821Z,17.17
2022-08-26T23:59:00.789Z,17.13
